sensor_id;sensor_type;location;lat;lon;timestamp;P1;durP1;ratioP1;P2;durP2;ratioP2
10387;SDS011;5240;51.128;4.566;2023-05-15T00:01:27;35.50;;;30.35;;
10387;SDS011;5240;51.128;4.566;2023-05-15T00:03:54;38.20;;;30.15;;
10387;SDS011;5240;51.128;4.566;2023-05-15T00:06:23;35.85;;;29.08;;
10387;SDS011;5240;51.128;4.566;2023-05-15T00:08:50;37.10;;;28.65;;
10387;SDS011;5240;51.128;4.566;2023-05-15T00:11:17;32.22;;;28.42;;
10387;SDS011;5240;51.128;4.566;2023-05-15T00:13:45;37.95;;;29.83;;
10387;SDS011;5240;51.128;4.566;2023-05-15T00:16:12;33.50;;;29.70;;
10387;SDS011;5240;51.128;4.566;2023-05-15T00:18:39;34.38;;;29.50;;
10387;SDS011;5240;51.128;4.566;2023-05-15T00:21:06;33.60;;;29.67;;
10387;SDS011;5240;51.128;4.566;2023-05-15T00:23:35;35.90;;;29.95;;
10387;SDS011;5240;51.128;4.566;2023-05-15T00:26:02;34.63;;;30.02;;
10387;SDS011;5240;51.128;4.566;2023-05-15T00:28:32;35.15;;;29.70;;
10387;SDS011;5240;51.128;4.566;2023-05-15T00:30:59;38.20;;;30.73;;
10387;SDS011;5240;51.128;4.566;2023-05-15T00:33:26;36.42;;;30.50;;
10387;SDS011;5240;51.128;4.566;2023-05-15T00:35:53;33.30;;;29.77;;
10387;SDS011;5240;51.128;4.566;2023-05-15T00:38:20;35.22;;;30.65;;
10387;SDS011;5240;51.128;4.566;2023-05-15T00:40:48;37.90;;;31.25;;
10387;SDS011;5240;51.128;4.566;2023-05-15T00:43:16;33.67;;;29.65;;
10387;SDS011;5240;51.128;4.566;2023-05-15T00:45:44;34.08;;;30.40;;
10387;SDS011;5240;51.128;4.566;2023-05-15T00:48:12;35.53;;;30.42;;
10387;SDS011;5240;51.128;4.566;2023-05-15T00:50:40;35.83;;;31.02;;
10387;SDS011;5240;51.128;4.566;2023-05-15T00:53:08;36.65;;;29.27;;
10387;SDS011;5240;51.128;4.566;2023-05-15T00:55:36;33.22;;;29.15;;
10387;SDS011;5240;51.128;4.566;2023-05-15T00:58:06;34.60;;;30.52;;
10387;SDS011;5240;51.128;4.566;2023-05-15T01:00:35;35.95;;;29.80;;
10387;SDS011;5240;51.128;4.566;2023-05-15T01:03:03;35.40;;;29.63;;
10387;SDS011;5240;51.128;4.566;2023-05-15T01:05:31;34.28;;;29.08;;
10387;SDS011;5240;51.128;4.566;2023-05-15T01:08:00;33.38;;;29.35;;
10387;SDS011;5240;51.128;4.566;2023-05-15T01:10:35;40.15;;;30.38;;
10387;SDS011;5240;51.128;4.566;2023-05-15T01:13:02;42.17;;;30.35;;
10387;SDS011;5240;51.128;4.566;2023-05-15T01:15:34;35.72;;;30.90;;
10387;SDS011;5240;51.128;4.566;2023-05-15T01:18:01;35.38;;;29.27;;
10387;SDS011;5240;51.128;4.566;2023-05-15T01:20:28;36.38;;;31.30;;
10387;SDS011;5240;51.128;4.566;2023-05-15T01:23:08;39.80;;;32.92;;
10387;SDS011;5240;51.128;4.566;2023-05-15T01:28:59;40.28;;;33.97;;
10387;SDS011;5240;51.128;4.566;2023-05-15T01:31:30;43.05;;;34.05;;
10387;SDS011;5240;51.128;4.566;2023-05-15T01:34:01;41.88;;;35.75;;
10387;SDS011;5240;51.128;4.566;2023-05-15T01:36:32;40.40;;;35.17;;
10387;SDS011;5240;51.128;4.566;2023-05-15T01:39:03;45.35;;;36.20;;
10387;SDS011;5240;51.128;4.566;2023-05-15T01:41:33;44.33;;;36.88;;
10387;SDS011;5240;51.128;4.566;2023-05-15T01:44:10;45.67;;;37.42;;
10387;SDS011;5240;51.128;4.566;2023-05-15T01:46:44;42.83;;;36.00;;
10387;SDS011;5240;51.128;4.566;2023-05-15T01:49:15;51.55;;;37.58;;
10387;SDS011;5240;51.128;4.566;2023-05-15T01:51:44;48.05;;;36.90;;
10387;SDS011;5240;51.128;4.566;2023-05-15T01:54:15;46.67;;;35.47;;
10387;SDS011;5240;51.128;4.566;2023-05-15T01:56:44;50.53;;;39.47;;
10387;SDS011;5240;51.128;4.566;2023-05-15T01:59:13;46.25;;;38.85;;
10387;SDS011;5240;51.128;4.566;2023-05-15T02:01:41;46.25;;;38.58;;
10387;SDS011;5240;51.128;4.566;2023-05-15T02:04:11;46.30;;;38.17;;
10387;SDS011;5240;51.128;4.566;2023-05-15T02:06:39;50.53;;;39.15;;
10387;SDS011;5240;51.128;4.566;2023-05-15T02:09:06;50.75;;;40.60;;
10387;SDS011;5240;51.128;4.566;2023-05-15T02:11:35;51.47;;;40.92;;
10387;SDS011;5240;51.128;4.566;2023-05-15T02:14:03;49.95;;;41.38;;
10387;SDS011;5240;51.128;4.566;2023-05-15T02:16:32;57.05;;;42.38;;
10387;SDS011;5240;51.128;4.566;2023-05-15T02:18:59;58.70;;;45.42;;
10387;SDS011;5240;51.128;4.566;2023-05-15T02:21:26;57.33;;;45.63;;
10387;SDS011;5240;51.128;4.566;2023-05-15T02:23:54;57.88;;;45.20;;
10387;SDS011;5240;51.128;4.566;2023-05-15T02:26:24;63.10;;;47.70;;
10387;SDS011;5240;51.128;4.566;2023-05-15T02:29:00;63.80;;;47.85;;
10387;SDS011;5240;51.128;4.566;2023-05-15T02:31:39;67.78;;;49.30;;
10387;SDS011;5240;51.128;4.566;2023-05-15T02:34:14;65.25;;;47.72;;
10387;SDS011;5240;51.128;4.566;2023-05-15T02:36:46;64.13;;;47.10;;
10387;SDS011;5240;51.128;4.566;2023-05-15T02:39:15;72.38;;;48.85;;
10387;SDS011;5240;51.128;4.566;2023-05-15T02:41:43;73.40;;;47.97;;
10387;SDS011;5240;51.128;4.566;2023-05-15T02:44:12;65.88;;;48.95;;
10387;SDS011;5240;51.128;4.566;2023-05-15T02:46:41;76.65;;;49.58;;
10387;SDS011;5240;51.128;4.566;2023-05-15T02:49:09;71.70;;;48.63;;
10387;SDS011;5240;51.128;4.566;2023-05-15T02:51:37;73.18;;;48.85;;
10387;SDS011;5240;51.128;4.566;2023-05-15T02:54:04;70.47;;;48.38;;
10387;SDS011;5240;51.128;4.566;2023-05-15T02:56:33;70.53;;;48.17;;
10387;SDS011;5240;51.128;4.566;2023-05-15T02:59:00;72.90;;;49.50;;
10387;SDS011;5240;51.128;4.566;2023-05-15T03:01:27;66.15;;;48.70;;
10387;SDS011;5240;51.128;4.566;2023-05-15T03:03:55;70.40;;;49.92;;
10387;SDS011;5240;51.128;4.566;2023-05-15T03:06:22;77.40;;;51.53;;
10387;SDS011;5240;51.128;4.566;2023-05-15T03:08:49;65.30;;;47.15;;
10387;SDS011;5240;51.128;4.566;2023-05-15T03:11:16;64.75;;;47.13;;
10387;SDS011;5240;51.128;4.566;2023-05-15T03:13:44;64.28;;;44.50;;
10387;SDS011;5240;51.128;4.566;2023-05-15T03:16:11;59.70;;;44.80;;
10387;SDS011;5240;51.128;4.566;2023-05-15T03:18:38;62.95;;;44.78;;
10387;SDS011;5240;51.128;4.566;2023-05-15T03:21:07;67.65;;;45.70;;
10387;SDS011;5240;51.128;4.566;2023-05-15T03:23:35;66.70;;;47.15;;
10387;SDS011;5240;51.128;4.566;2023-05-15T03:26:02;66.28;;;48.05;;
10387;SDS011;5240;51.128;4.566;2023-05-15T03:28:29;72.85;;;50.28;;
10387;SDS011;5240;51.128;4.566;2023-05-15T03:30:56;71.28;;;50.63;;
10387;SDS011;5240;51.128;4.566;2023-05-15T03:33:23;75.55;;;52.10;;
10387;SDS011;5240;51.128;4.566;2023-05-15T03:35:50;74.50;;;50.63;;
10387;SDS011;5240;51.128;4.566;2023-05-15T03:38:19;71.22;;;49.67;;
10387;SDS011;5240;51.128;4.566;2023-05-15T03:40:46;70.00;;;48.25;;
10387;SDS011;5240;51.128;4.566;2023-05-15T03:43:13;65.90;;;47.33;;
10387;SDS011;5240;51.128;4.566;2023-05-15T03:45:40;69.97;;;46.50;;
10387;SDS011;5240;51.128;4.566;2023-05-15T03:48:07;60.10;;;43.40;;
10387;SDS011;5240;51.128;4.566;2023-05-15T03:50:34;69.95;;;47.25;;
10387;SDS011;5240;51.128;4.566;2023-05-15T03:53:03;70.50;;;49.63;;
10387;SDS011;5240;51.128;4.566;2023-05-15T03:55:31;78.82;;;51.55;;
10387;SDS011;5240;51.128;4.566;2023-05-15T03:57:58;82.97;;;53.78;;
10387;SDS011;5240;51.128;4.566;2023-05-15T04:00:26;79.57;;;54.35;;
10387;SDS011;5240;51.128;4.566;2023-05-15T04:02:53;79.47;;;53.22;;
10387;SDS011;5240;51.128;4.566;2023-05-15T04:05:20;77.55;;;52.58;;
10387;SDS011;5240;51.128;4.566;2023-05-15T04:07:47;83.38;;;52.13;;
10387;SDS011;5240;51.128;4.566;2023-05-15T04:10:14;76.85;;;53.70;;
10387;SDS011;5240;51.128;4.566;2023-05-15T04:12:42;77.80;;;52.00;;
10387;SDS011;5240;51.128;4.566;2023-05-15T04:15:12;79.03;;;53.15;;
10387;SDS011;5240;51.128;4.566;2023-05-15T04:17:41;88.30;;;57.22;;
10387;SDS011;5240;51.128;4.566;2023-05-15T04:20:08;86.20;;;55.80;;
10387;SDS011;5240;51.128;4.566;2023-05-15T04:22:37;87.85;;;55.60;;
10387;SDS011;5240;51.128;4.566;2023-05-15T04:25:04;81.25;;;52.60;;
10387;SDS011;5240;51.128;4.566;2023-05-15T04:27:32;75.90;;;52.70;;
10387;SDS011;5240;51.128;4.566;2023-05-15T04:30:00;83.03;;;53.50;;
10387;SDS011;5240;51.128;4.566;2023-05-15T04:32:28;78.38;;;53.80;;
10387;SDS011;5240;51.128;4.566;2023-05-15T04:34:57;81.50;;;56.00;;
10387;SDS011;5240;51.128;4.566;2023-05-15T04:37:25;80.53;;;54.95;;
10387;SDS011;5240;51.128;4.566;2023-05-15T04:39:52;74.95;;;50.60;;
10387;SDS011;5240;51.128;4.566;2023-05-15T04:42:19;67.28;;;48.42;;
10387;SDS011;5240;51.128;4.566;2023-05-15T04:44:46;65.65;;;48.58;;
10387;SDS011;5240;51.128;4.566;2023-05-15T04:47:15;63.30;;;46.03;;
10387;SDS011;5240;51.128;4.566;2023-05-15T04:49:42;65.35;;;49.70;;
10387;SDS011;5240;51.128;4.566;2023-05-15T04:52:09;68.72;;;50.25;;
10387;SDS011;5240;51.128;4.566;2023-05-15T04:54:36;64.50;;;47.22;;
10387;SDS011;5240;51.128;4.566;2023-05-15T04:57:03;65.43;;;49.65;;
10387;SDS011;5240;51.128;4.566;2023-05-15T04:59:30;70.40;;;51.83;;
10387;SDS011;5240;51.128;4.566;2023-05-15T05:01:57;77.32;;;53.58;;
10387;SDS011;5240;51.128;4.566;2023-05-15T05:04:26;73.07;;;52.25;;
10387;SDS011;5240;51.128;4.566;2023-05-15T05:06:53;77.35;;;53.70;;
10387;SDS011;5240;51.128;4.566;2023-05-15T05:09:20;82.13;;;55.53;;
10387;SDS011;5240;51.128;4.566;2023-05-15T05:11:47;77.43;;;54.28;;
10387;SDS011;5240;51.128;4.566;2023-05-15T05:14:14;79.80;;;54.05;;
10387;SDS011;5240;51.128;4.566;2023-05-15T05:16:42;88.03;;;58.22;;
10387;SDS011;5240;51.128;4.566;2023-05-15T05:19:10;78.50;;;54.58;;
10387;SDS011;5240;51.128;4.566;2023-05-15T05:21:38;64.88;;;46.55;;
10387;SDS011;5240;51.128;4.566;2023-05-15T05:24:05;71.60;;;48.83;;
10387;SDS011;5240;51.128;4.566;2023-05-15T05:26:32;69.55;;;49.95;;
10387;SDS011;5240;51.128;4.566;2023-05-15T05:28:59;70.13;;;48.92;;
10387;SDS011;5240;51.128;4.566;2023-05-15T05:31:26;70.35;;;48.97;;
10387;SDS011;5240;51.128;4.566;2023-05-15T05:33:53;71.95;;;49.75;;
10387;SDS011;5240;51.128;4.566;2023-05-15T05:36:21;77.85;;;51.92;;
10387;SDS011;5240;51.128;4.566;2023-05-15T05:38:49;78.22;;;52.33;;
10387;SDS011;5240;51.128;4.566;2023-05-15T05:41:16;73.32;;;51.75;;
10387;SDS011;5240;51.128;4.566;2023-05-15T05:43:43;71.43;;;52.65;;
10387;SDS011;5240;51.128;4.566;2023-05-15T05:46:10;68.63;;;50.30;;
10387;SDS011;5240;51.128;4.566;2023-05-15T05:48:37;70.55;;;50.53;;
10387;SDS011;5240;51.128;4.566;2023-05-15T05:51:04;73.75;;;53.33;;
10387;SDS011;5240;51.128;4.566;2023-05-15T05:53:31;74.88;;;52.72;;
10387;SDS011;5240;51.128;4.566;2023-05-15T05:55:59;74.22;;;52.47;;
10387;SDS011;5240;51.128;4.566;2023-05-15T05:58:26;70.93;;;52.10;;
10387;SDS011;5240;51.128;4.566;2023-05-15T06:00:53;73.45;;;52.65;;
10387;SDS011;5240;51.128;4.566;2023-05-15T06:03:21;69.10;;;52.33;;
10387;SDS011;5240;51.128;4.566;2023-05-15T06:05:49;70.68;;;52.65;;
10387;SDS011;5240;51.128;4.566;2023-05-15T06:08:16;78.05;;;53.15;;
10387;SDS011;5240;51.128;4.566;2023-05-15T06:10:43;72.40;;;52.45;;
10387;SDS011;5240;51.128;4.566;2023-05-15T06:13:12;71.70;;;52.05;;
10387;SDS011;5240;51.128;4.566;2023-05-15T06:15:40;74.10;;;53.88;;
10387;SDS011;5240;51.128;4.566;2023-05-15T06:18:35;63.63;;;51.08;;
10387;SDS011;5240;51.128;4.566;2023-05-15T06:21:02;75.00;;;52.60;;
10387;SDS011;5240;51.128;4.566;2023-05-15T06:23:30;68.15;;;50.80;;
10387;SDS011;5240;51.128;4.566;2023-05-15T06:28:43;63.28;;;49.30;;
10387;SDS011;5240;51.128;4.566;2023-05-15T06:31:11;63.70;;;50.22;;
10387;SDS011;5240;51.128;4.566;2023-05-15T06:41:37;68.25;;;50.70;;
10387;SDS011;5240;51.128;4.566;2023-05-15T06:44:06;68.25;;;51.13;;
10387;SDS011;5240;51.128;4.566;2023-05-15T06:46:33;68.63;;;50.55;;
10387;SDS011;5240;51.128;4.566;2023-05-15T06:49:05;72.13;;;51.70;;
10387;SDS011;5240;51.128;4.566;2023-05-15T06:51:32;67.20;;;49.67;;
10387;SDS011;5240;51.128;4.566;2023-05-15T06:53:59;67.40;;;50.25;;
10387;SDS011;5240;51.128;4.566;2023-05-15T06:56:26;67.70;;;50.67;;
10387;SDS011;5240;51.128;4.566;2023-05-15T06:58:53;63.08;;;48.00;;
10387;SDS011;5240;51.128;4.566;2023-05-15T07:01:22;74.28;;;52.22;;
10387;SDS011;5240;51.128;4.566;2023-05-15T07:03:49;72.00;;;51.75;;
10387;SDS011;5240;51.128;4.566;2023-05-15T07:06:16;69.97;;;51.88;;
10387;SDS011;5240;51.128;4.566;2023-05-15T07:08:43;67.30;;;50.33;;
10387;SDS011;5240;51.128;4.566;2023-05-15T07:11:15;73.80;;;52.10;;
10387;SDS011;5240;51.128;4.566;2023-05-15T07:13:42;71.32;;;50.15;;
10387;SDS011;5240;51.128;4.566;2023-05-15T07:16:10;68.40;;;50.03;;
10387;SDS011;5240;51.128;4.566;2023-05-15T07:18:54;62.53;;;47.95;;
10387;SDS011;5240;51.128;4.566;2023-05-15T07:32:08;68.70;;;48.75;;
10387;SDS011;5240;51.128;4.566;2023-05-15T07:34:42;61.80;;;47.50;;
10387;SDS011;5240;51.128;4.566;2023-05-15T07:37:09;68.63;;;49.83;;
10387;SDS011;5240;51.128;4.566;2023-05-15T07:39:36;75.55;;;52.90;;
10387;SDS011;5240;51.128;4.566;2023-05-15T07:58:54;67.18;;;46.25;;
10387;SDS011;5240;51.128;4.566;2023-05-15T08:01:21;69.88;;;49.00;;
10387;SDS011;5240;51.128;4.566;2023-05-15T08:03:48;66.07;;;46.85;;
10387;SDS011;5240;51.128;4.566;2023-05-15T08:06:15;66.75;;;47.75;;
10387;SDS011;5240;51.128;4.566;2023-05-15T08:08:43;67.80;;;48.05;;
10387;SDS011;5240;51.128;4.566;2023-05-15T08:11:11;67.32;;;47.95;;
10387;SDS011;5240;51.128;4.566;2023-05-15T08:16:34;67.10;;;47.45;;
10387;SDS011;5240;51.128;4.566;2023-05-15T08:19:02;69.97;;;48.60;;
10387;SDS011;5240;51.128;4.566;2023-05-15T08:21:33;70.90;;;47.53;;
10387;SDS011;5240;51.128;4.566;2023-05-15T08:24:01;73.88;;;50.17;;
10387;SDS011;5240;51.128;4.566;2023-05-15T08:26:29;72.45;;;48.80;;
10387;SDS011;5240;51.128;4.566;2023-05-15T08:34:42;76.68;;;50.35;;
10387;SDS011;5240;51.128;4.566;2023-05-15T08:37:13;71.90;;;49.13;;
10387;SDS011;5240;51.128;4.566;2023-05-15T08:42:30;74.15;;;48.85;;
10387;SDS011;5240;51.128;4.566;2023-05-15T08:45:03;71.72;;;49.08;;
10387;SDS011;5240;51.128;4.566;2023-05-15T08:47:37;75.25;;;49.95;;
10387;SDS011;5240;51.128;4.566;2023-05-15T08:50:07;80.80;;;49.55;;
10387;SDS011;5240;51.128;4.566;2023-05-15T08:52:38;81.18;;;50.78;;
10387;SDS011;5240;51.128;4.566;2023-05-15T08:55:21;77.57;;;49.03;;
10387;SDS011;5240;51.128;4.566;2023-05-15T09:14:48;97.00;;;56.00;;
10387;SDS011;5240;51.128;4.566;2023-05-15T09:23:03;89.93;;;55.13;;
10387;SDS011;5240;51.128;4.566;2023-05-15T09:25:53;87.05;;;53.80;;
10387;SDS011;5240;51.128;4.566;2023-05-15T09:28:25;94.95;;;55.63;;
10387;SDS011;5240;51.128;4.566;2023-05-15T11:12:24;93.63;;;55.97;;
10387;SDS011;5240;51.128;4.566;2023-05-15T11:15:18;93.35;;;56.67;;
10387;SDS011;5240;51.128;4.566;2023-05-15T11:20:33;95.03;;;58.60;;
10387;SDS011;5240;51.128;4.566;2023-05-15T11:23:03;97.30;;;59.75;;
10387;SDS011;5240;51.128;4.566;2023-05-15T11:25:31;102.32;;;62.80;;
10387;SDS011;5240;51.128;4.566;2023-05-15T11:28:00;103.32;;;60.72;;
10387;SDS011;5240;51.128;4.566;2023-05-15T11:30:36;106.30;;;60.67;;
10387;SDS011;5240;51.128;4.566;2023-05-15T11:33:04;106.57;;;60.58;;
10387;SDS011;5240;51.128;4.566;2023-05-15T11:35:36;112.15;;;64.40;;
10387;SDS011;5240;51.128;4.566;2023-05-15T11:38:10;107.15;;;61.80;;
10387;SDS011;5240;51.128;4.566;2023-05-15T11:40:45;105.60;;;60.25;;
10387;SDS011;5240;51.128;4.566;2023-05-15T11:43:17;110.55;;;59.95;;
10387;SDS011;5240;51.128;4.566;2023-05-15T11:45:46;111.65;;;60.88;;
10387;SDS011;5240;51.128;4.566;2023-05-15T11:48:18;107.32;;;62.15;;
10387;SDS011;5240;51.128;4.566;2023-05-15T11:50:47;106.07;;;59.67;;
10387;SDS011;5240;51.128;4.566;2023-05-15T11:53:18;114.65;;;60.97;;
10387;SDS011;5240;51.128;4.566;2023-05-15T11:55:47;127.47;;;61.58;;
10387;SDS011;5240;51.128;4.566;2023-05-15T11:58:15;122.50;;;60.72;;
10387;SDS011;5240;51.128;4.566;2023-05-15T12:00:45;119.82;;;57.40;;
10387;SDS011;5240;51.128;4.566;2023-05-15T12:03:14;125.53;;;58.35;;
10387;SDS011;5240;51.128;4.566;2023-05-15T12:05:42;106.60;;;49.42;;
10387;SDS011;5240;51.128;4.566;2023-05-15T12:08:09;82.45;;;40.10;;
10387;SDS011;5240;51.128;4.566;2023-05-15T12:10:40;79.93;;;38.55;;
10387;SDS011;5240;51.128;4.566;2023-05-15T12:13:09;74.82;;;38.17;;
10387;SDS011;5240;51.128;4.566;2023-05-15T12:15:38;68.07;;;35.05;;
10387;SDS011;5240;51.128;4.566;2023-05-15T12:18:09;61.70;;;31.38;;
10387;SDS011;5240;51.128;4.566;2023-05-15T12:20:39;54.70;;;28.48;;
10387;SDS011;5240;51.128;4.566;2023-05-15T12:25:49;53.42;;;27.23;;
10387;SDS011;5240;51.128;4.566;2023-05-15T12:28:22;44.67;;;25.27;;
10387;SDS011;5240;51.128;4.566;2023-05-15T12:31:07;43.28;;;24.35;;
10387;SDS011;5240;51.128;4.566;2023-05-15T12:33:36;37.97;;;22.00;;
10387;SDS011;5240;51.128;4.566;2023-05-15T12:36:06;40.15;;;22.33;;
10387;SDS011;5240;51.128;4.566;2023-05-15T12:38:36;39.22;;;22.85;;
10387;SDS011;5240;51.128;4.566;2023-05-15T12:41:12;38.40;;;21.85;;
10387;SDS011;5240;51.128;4.566;2023-05-15T12:43:39;32.78;;;21.40;;
10387;SDS011;5240;51.128;4.566;2023-05-15T12:46:22;32.30;;;20.13;;
10387;SDS011;5240;51.128;4.566;2023-05-15T12:49:08;33.08;;;19.90;;
10387;SDS011;5240;51.128;4.566;2023-05-15T12:51:53;32.58;;;18.60;;
10387;SDS011;5240;51.128;4.566;2023-05-15T12:56:57;21.40;;;13.70;;
10387;SDS011;5240;51.128;4.566;2023-05-15T12:59:34;15.40;;;10.40;;
10387;SDS011;5240;51.128;4.566;2023-05-15T13:02:07;12.10;;;9.50;;
10387;SDS011;5240;51.128;4.566;2023-05-15T13:04:36;15.27;;;9.70;;
10387;SDS011;5240;51.128;4.566;2023-05-15T13:07:21;15.10;;;9.35;;
10387;SDS011;5240;51.128;4.566;2023-05-15T13:10:00;17.50;;;8.75;;
10387;SDS011;5240;51.128;4.566;2023-05-15T13:12:34;14.50;;;8.82;;
10387;SDS011;5240;51.128;4.566;2023-05-15T13:15:02;11.80;;;7.88;;
10387;SDS011;5240;51.128;4.566;2023-05-15T13:17:31;15.48;;;8.30;;
10387;SDS011;5240;51.128;4.566;2023-05-15T13:19:59;9.52;;;7.28;;
10387;SDS011;5240;51.128;4.566;2023-05-15T13:25:16;16.15;;;6.68;;
10387;SDS011;5240;51.128;4.566;2023-05-15T13:28:03;11.32;;;6.05;;
10387;SDS011;5240;51.128;4.566;2023-05-15T13:30:33;12.07;;;5.93;;
10387;SDS011;5240;51.128;4.566;2023-05-15T13:33:05;15.57;;;6.55;;
10387;SDS011;5240;51.128;4.566;2023-05-15T13:35:32;19.35;;;7.07;;
10387;SDS011;5240;51.128;4.566;2023-05-15T14:14:17;11.90;;;5.78;;
10387;SDS011;5240;51.128;4.566;2023-05-15T14:16:44;14.23;;;5.93;;
10387;SDS011;5240;51.128;4.566;2023-05-15T14:19:11;9.65;;;5.75;;
10387;SDS011;5240;51.128;4.566;2023-05-15T14:21:39;13.02;;;6.25;;
10387;SDS011;5240;51.128;4.566;2023-05-15T14:24:06;8.35;;;5.30;;
10387;SDS011;5240;51.128;4.566;2023-05-15T14:26:34;10.85;;;5.35;;
10387;SDS011;5240;51.128;4.566;2023-05-15T14:29:01;9.25;;;5.25;;
10387;SDS011;5240;51.128;4.566;2023-05-15T15:02:34;9.05;;;3.70;;
10387;SDS011;5240;51.128;4.566;2023-05-15T15:05:01;6.70;;;3.35;;
10387;SDS011;5240;51.128;4.566;2023-05-15T15:07:29;10.13;;;4.28;;
10387;SDS011;5240;51.128;4.566;2023-05-15T15:09:56;8.07;;;4.50;;
10387;SDS011;5240;51.128;4.566;2023-05-15T15:12:25;10.10;;;4.32;;
10387;SDS011;5240;51.128;4.566;2023-05-15T15:14:52;8.80;;;4.25;;
10387;SDS011;5240;51.128;4.566;2023-05-15T15:17:20;9.13;;;4.10;;
10387;SDS011;5240;51.128;4.566;2023-05-15T15:19:48;8.30;;;3.97;;
10387;SDS011;5240;51.128;4.566;2023-05-15T15:22:15;9.57;;;4.57;;
10387;SDS011;5240;51.128;4.566;2023-05-15T15:24:42;9.02;;;4.53;;
10387;SDS011;5240;51.128;4.566;2023-05-15T15:27:09;9.05;;;4.28;;
10387;SDS011;5240;51.128;4.566;2023-05-15T15:29:36;7.13;;;4.18;;
10387;SDS011;5240;51.128;4.566;2023-05-15T15:32:03;8.27;;;4.22;;
10387;SDS011;5240;51.128;4.566;2023-05-15T15:34:31;8.63;;;4.72;;
10387;SDS011;5240;51.128;4.566;2023-05-15T15:36:59;11.15;;;5.00;;
10387;SDS011;5240;51.128;4.566;2023-05-15T15:39:26;13.05;;;5.45;;
10387;SDS011;5240;51.128;4.566;2023-05-15T15:41:53;9.23;;;5.20;;
10387;SDS011;5240;51.128;4.566;2023-05-15T15:44:20;13.32;;;5.60;;
10387;SDS011;5240;51.128;4.566;2023-05-15T15:46:48;12.35;;;5.38;;
10387;SDS011;5240;51.128;4.566;2023-05-15T15:49:15;10.48;;;5.55;;
10387;SDS011;5240;51.128;4.566;2023-05-15T15:51:42;9.10;;;5.72;;
10387;SDS011;5240;51.128;4.566;2023-05-15T15:54:11;9.23;;;5.85;;
10387;SDS011;5240;51.128;4.566;2023-05-15T15:56:38;11.73;;;6.35;;
10387;SDS011;5240;51.128;4.566;2023-05-15T15:59:07;10.73;;;5.85;;
10387;SDS011;5240;51.128;4.566;2023-05-15T16:01:34;10.15;;;6.30;;
10387;SDS011;5240;51.128;4.566;2023-05-15T16:04:01;9.93;;;5.63;;
10387;SDS011;5240;51.128;4.566;2023-05-15T16:06:28;9.77;;;6.45;;
10387;SDS011;5240;51.128;4.566;2023-05-15T16:08:55;12.52;;;5.78;;
10387;SDS011;5240;51.128;4.566;2023-05-15T16:11:23;9.50;;;5.13;;
10387;SDS011;5240;51.128;4.566;2023-05-15T16:13:51;11.25;;;5.10;;
10387;SDS011;5240;51.128;4.566;2023-05-15T16:16:18;11.80;;;4.82;;
10387;SDS011;5240;51.128;4.566;2023-05-15T16:18:45;8.70;;;4.20;;
10387;SDS011;5240;51.128;4.566;2023-05-15T16:21:12;10.05;;;4.63;;
10387;SDS011;5240;51.128;4.566;2023-05-15T16:23:39;8.90;;;4.07;;
10387;SDS011;5240;51.128;4.566;2023-05-15T16:26:07;11.00;;;3.95;;
10387;SDS011;5240;51.128;4.566;2023-05-15T16:28:36;9.20;;;3.70;;
10387;SDS011;5240;51.128;4.566;2023-05-15T16:31:04;8.95;;;4.70;;
10387;SDS011;5240;51.128;4.566;2023-05-15T16:33:31;7.57;;;3.70;;
10387;SDS011;5240;51.128;4.566;2023-05-15T16:35:59;8.75;;;4.30;;
10387;SDS011;5240;51.128;4.566;2023-05-15T16:38:29;8.07;;;3.60;;
10387;SDS011;5240;51.128;4.566;2023-05-15T16:40:56;6.50;;;3.00;;
10387;SDS011;5240;51.128;4.566;2023-05-15T16:43:26;7.28;;;3.22;;
10387;SDS011;5240;51.128;4.566;2023-05-15T16:45:55;8.40;;;3.42;;
10387;SDS011;5240;51.128;4.566;2023-05-15T16:48:23;9.32;;;3.80;;
10387;SDS011;5240;51.128;4.566;2023-05-15T16:50:52;8.27;;;3.40;;
10387;SDS011;5240;51.128;4.566;2023-05-15T16:53:19;8.90;;;3.55;;
10387;SDS011;5240;51.128;4.566;2023-05-15T16:55:46;9.68;;;3.60;;
10387;SDS011;5240;51.128;4.566;2023-05-15T16:58:13;12.55;;;3.97;;
10387;SDS011;5240;51.128;4.566;2023-05-15T17:00:41;10.00;;;3.75;;
10387;SDS011;5240;51.128;4.566;2023-05-15T17:03:10;11.73;;;4.00;;
10387;SDS011;5240;51.128;4.566;2023-05-15T17:05:37;10.73;;;3.53;;
10387;SDS011;5240;51.128;4.566;2023-05-15T17:08:05;10.32;;;3.90;;
10387;SDS011;5240;51.128;4.566;2023-05-15T17:10:32;12.85;;;3.90;;
10387;SDS011;5240;51.128;4.566;2023-05-15T17:12:59;11.95;;;4.10;;
10387;SDS011;5240;51.128;4.566;2023-05-15T17:15:26;9.38;;;3.90;;
10387;SDS011;5240;51.128;4.566;2023-05-15T17:17:53;11.38;;;3.83;;
10387;SDS011;5240;51.128;4.566;2023-05-15T17:20:22;14.52;;;4.22;;
10387;SDS011;5240;51.128;4.566;2023-05-15T17:22:49;12.93;;;3.78;;
10387;SDS011;5240;51.128;4.566;2023-05-15T17:25:16;12.52;;;4.18;;
10387;SDS011;5240;51.128;4.566;2023-05-15T17:27:43;12.80;;;3.90;;
10387;SDS011;5240;51.128;4.566;2023-05-15T17:30:10;12.55;;;3.97;;
10387;SDS011;5240;51.128;4.566;2023-05-15T17:32:38;18.63;;;4.18;;
10387;SDS011;5240;51.128;4.566;2023-05-15T17:35:05;12.40;;;3.63;;
10387;SDS011;5240;51.128;4.566;2023-05-15T17:37:34;12.63;;;4.50;;
10387;SDS011;5240;51.128;4.566;2023-05-15T17:40:02;12.13;;;4.22;;
10387;SDS011;5240;51.128;4.566;2023-05-15T17:42:29;11.35;;;4.00;;
10387;SDS011;5240;51.128;4.566;2023-05-15T17:44:57;13.10;;;5.00;;
10387;SDS011;5240;51.128;4.566;2023-05-15T17:47:24;12.35;;;5.00;;
10387;SDS011;5240;51.128;4.566;2023-05-15T17:49:51;16.08;;;4.40;;
10387;SDS011;5240;51.128;4.566;2023-05-15T17:52:18;11.93;;;4.50;;
10387;SDS011;5240;51.128;4.566;2023-05-15T17:54:46;13.38;;;4.32;;
10387;SDS011;5240;51.128;4.566;2023-05-15T17:57:13;14.57;;;4.72;;
10387;SDS011;5240;51.128;4.566;2023-05-15T17:59:40;14.52;;;5.13;;
10387;SDS011;5240;51.128;4.566;2023-05-15T18:02:08;13.23;;;4.40;;
10387;SDS011;5240;51.128;4.566;2023-05-15T18:04:35;12.13;;;4.25;;
10387;SDS011;5240;51.128;4.566;2023-05-15T18:07:02;17.95;;;5.07;;
10387;SDS011;5240;51.128;4.566;2023-05-15T18:09:29;13.80;;;4.90;;
10387;SDS011;5240;51.128;4.566;2023-05-15T18:11:58;19.30;;;5.03;;
10387;SDS011;5240;51.128;4.566;2023-05-15T18:14:25;12.85;;;4.93;;
10387;SDS011;5240;51.128;4.566;2023-05-15T18:16:53;13.45;;;4.70;;
10387;SDS011;5240;51.128;4.566;2023-05-15T18:19:21;18.08;;;4.75;;
10387;SDS011;5240;51.128;4.566;2023-05-15T18:21:48;12.95;;;5.30;;
10387;SDS011;5240;51.128;4.566;2023-05-15T18:24:16;15.27;;;4.80;;
10387;SDS011;5240;51.128;4.566;2023-05-15T18:26:43;13.90;;;4.53;;
10387;SDS011;5240;51.128;4.566;2023-05-15T18:29:12;15.18;;;4.82;;
10387;SDS011;5240;51.128;4.566;2023-05-15T18:31:39;18.15;;;4.65;;
10387;SDS011;5240;51.128;4.566;2023-05-15T18:34:06;8.98;;;4.03;;
10387;SDS011;5240;51.128;4.566;2023-05-15T18:36:33;17.20;;;4.78;;
10387;SDS011;5240;51.128;4.566;2023-05-15T18:39:00;12.07;;;4.10;;
10387;SDS011;5240;51.128;4.566;2023-05-15T18:41:27;10.90;;;4.22;;
10387;SDS011;5240;51.128;4.566;2023-05-15T18:43:54;19.95;;;5.50;;
10387;SDS011;5240;51.128;4.566;2023-05-15T18:46:23;17.58;;;5.00;;
10387;SDS011;5240;51.128;4.566;2023-05-15T18:48:52;18.15;;;5.35;;
10387;SDS011;5240;51.128;4.566;2023-05-15T18:51:19;16.42;;;4.90;;
10387;SDS011;5240;51.128;4.566;2023-05-15T18:53:46;14.55;;;4.25;;
10387;SDS011;5240;51.128;4.566;2023-05-15T18:56:13;12.75;;;4.20;;
10387;SDS011;5240;51.128;4.566;2023-05-15T18:58:40;16.98;;;4.00;;
10387;SDS011;5240;51.128;4.566;2023-05-15T19:01:07;13.55;;;3.92;;
10387;SDS011;5240;51.128;4.566;2023-05-15T19:03:35;11.90;;;4.00;;
10387;SDS011;5240;51.128;4.566;2023-05-15T19:06:02;12.45;;;3.80;;